Terminal Aerodrome Forecast
Issued by NWS

Home | Current Version | Previous Version | Text Only | Print | Product List | Glossary On
Versions: 1 2 3 4 5 6 7 8 9 10 11 12 13 14 15 16 17 18 19 20
000
FTUS41 KRNK 260700 AAC
TAFBCB
TAF AMD
KBCB 260700Z 2607/2706 00000KT 1 1/2SM BR VV007
      TEMPO 2609/2612 1/4SM FG VV002
     FM261300 31005KT P6SM SCT040=

USA.gov is the U.S. government's official web portal to all federal, state and local government web resources and services.